createdAt,value
2022-10-20T00:01:05.561Z,98417.66
2022-10-20T00:03:32.204Z,98426.22
2022-10-20T00:06:19.253Z,98437.56
2022-10-20T00:08:45.825Z,98473.56
2022-10-20T00:11:13.654Z,98462.19
2022-10-20T00:13:40.415Z,98469.09
2022-10-20T00:16:07.206Z,98464.69
2022-10-20T00:18:33.730Z,98482.84
2022-10-20T00:21:00.128Z,98484.69
2022-10-20T00:23:26.533Z,98466.31
2022-10-20T00:26:03.771Z,98449.53
2022-10-20T00:28:30.289Z,98449.81
2022-10-20T00:30:56.765Z,98428.06
2022-10-20T00:33:23.851Z,98398.47
2022-10-20T00:35:50.252Z,98371.44
2022-10-20T00:38:16.667Z,98341.31
2022-10-20T00:40:43.055Z,98321.06
2022-10-20T00:43:13.717Z,98334.13
2022-10-20T00:45:40.259Z,98328.00
2022-10-20T00:48:14.734Z,98338.66
2022-10-20T00:50:49.138Z,98327.09
2022-10-20T00:53:18.984Z,98334.13
2022-10-20T00:55:47.080Z,98346.53
2022-10-20T00:58:13.477Z,98350.31
2022-10-20T01:00:40.286Z,98351.38
2022-10-20T01:03:06.710Z,98340.84
2022-10-20T01:05:33.085Z,98336.38
2022-10-20T01:08:01.527Z,98320.94
2022-10-20T01:10:28.520Z,98313.44
2022-10-20T01:13:00.738Z,98307.56
2022-10-20T01:15:51.894Z,98292.41
2022-10-20T01:18:38.810Z,98282.16
2022-10-20T01:21:40.561Z,98268.09
2022-10-20T01:24:22.252Z,98257.97
2022-10-20T01:27:11.979Z,98247.28
2022-10-20T01:29:47.922Z,98262.09
2022-10-20T01:32:26.890Z,98284.22
2022-10-20T01:35:17.692Z,98287.72
2022-10-20T01:38:04.781Z,98277.22
2022-10-20T01:40:45.098Z,98312.97
2022-10-20T01:43:12.854Z,98338.47
2022-10-20T01:45:41.512Z,98345.44
2022-10-20T01:48:07.916Z,98356.84
2022-10-20T01:50:34.947Z,98369.53
2022-10-20T01:53:01.508Z,98360.03
2022-10-20T01:55:27.899Z,98356.09
2022-10-20T01:58:06.408Z,98348.25
2022-10-20T02:00:32.790Z,98363.13
2022-10-20T02:03:36.251Z,98376.00
2022-10-20T02:06:24.504Z,98352.59
2022-10-20T02:09:03.510Z,98335.03
2022-10-20T02:11:49.339Z,98311.81
2022-10-20T02:14:16.444Z,98277.84
2022-10-20T02:16:48.069Z,98254.91
2022-10-20T02:19:14.538Z,98219.94
2022-10-20T02:21:41.077Z,98189.84
2022-10-20T02:24:08.415Z,98173.00
2022-10-20T02:26:34.800Z,98147.00
2022-10-20T02:29:05.106Z,98128.50
2022-10-20T02:31:31.477Z,98111.00
2022-10-20T02:33:57.917Z,98119.03
2022-10-20T02:36:28.636Z,98140.88
2022-10-20T02:38:55.073Z,98170.84
2022-10-20T02:41:21.495Z,98184.47
2022-10-20T02:43:47.903Z,98216.25
2022-10-20T02:48:45.573Z,98288.94
2022-10-20T02:51:13.220Z,98309.78
2022-10-20T02:53:39.621Z,98328.66
2022-10-20T02:56:06.315Z,98345.97
2022-10-20T02:58:32.762Z,98365.91
2022-10-20T03:00:59.173Z,98384.16
2022-10-20T03:03:25.550Z,98389.38
2022-10-20T03:05:51.898Z,98415.00
2022-10-20T03:08:18.317Z,98433.66
2022-10-20T03:10:44.725Z,98459.59
2022-10-20T03:13:11.295Z,98478.78
2022-10-20T03:15:38.078Z,98505.41
2022-10-20T03:18:04.471Z,98519.38
2022-10-20T03:20:30.891Z,98521.88
2022-10-20T03:22:57.290Z,98535.69
2022-10-20T03:25:23.717Z,98534.63
2022-10-20T03:27:50.080Z,98551.97
2022-10-20T03:30:16.487Z,98568.22
2022-10-20T03:32:42.857Z,98590.94
2022-10-20T03:35:09.570Z,98613.38
2022-10-20T03:37:35.952Z,98608.16
2022-10-20T03:40:02.370Z,98606.44
2022-10-20T03:42:28.730Z,98601.28
2022-10-20T03:44:55.134Z,98611.66
2022-10-20T03:47:21.511Z,98608.22
2022-10-20T03:49:47.889Z,98613.38
2022-10-20T03:52:14.342Z,98628.84
2022-10-20T03:54:40.960Z,98632.44
2022-10-20T03:57:08.047Z,98615.19
2022-10-20T03:59:34.515Z,98615.97
2022-10-20T04:02:01.040Z,98616.72
2022-10-20T04:04:27.458Z,98614.81
2022-10-20T04:06:53.904Z,98613.19
2022-10-20T04:09:20.325Z,98597.72
2022-10-20T04:11:47.097Z,98589.88
2022-10-20T04:14:13.486Z,98593.13
2022-10-20T04:16:39.928Z,98580.22
2022-10-20T04:19:06.309Z,98567.25
2022-10-20T04:21:32.748Z,98573.38
2022-10-20T04:23:59.128Z,98575.91
2022-10-20T04:26:25.579Z,98568.09
2022-10-20T04:28:51.962Z,98561.47
2022-10-20T04:31:18.313Z,98538.78
2022-10-20T04:33:44.699Z,98538.78
2022-10-20T04:36:12.369Z,98525.59
2022-10-20T04:38:38.778Z,98524.31
2022-10-20T04:41:05.362Z,98486.28
2022-10-20T04:43:32.438Z,98432.53
2022-10-20T04:46:05.511Z,98377.81
2022-10-20T04:48:34.697Z,98357.00
2022-10-20T04:51:02.877Z,98333.56
2022-10-20T04:53:29.369Z,98297.72
2022-10-20T04:55:56.871Z,98288.28
2022-10-20T04:58:23.358Z,98251.16
2022-10-20T05:00:50.205Z,98216.38
2022-10-20T05:03:16.737Z,98172.81
2022-10-20T05:05:43.135Z,98145.78
2022-10-20T05:08:09.555Z,98112.13
2022-10-20T05:10:36.810Z,98098.66
2022-10-20T05:13:03.332Z,98055.94
2022-10-20T05:15:29.721Z,98048.75
2022-10-20T05:17:56.108Z,98048.88
2022-10-20T05:20:22.501Z,98040.47
2022-10-20T05:22:48.891Z,98018.59
2022-10-20T05:25:35.634Z,98003.66
2022-10-20T05:28:01.775Z,97984.91
2022-10-20T05:30:28.176Z,97976.88
2022-10-20T05:32:54.561Z,97974.94
2022-10-20T05:35:20.922Z,97977.56
2022-10-20T05:37:47.323Z,97971.00
2022-10-20T05:40:13.857Z,97962.13
2022-10-20T05:42:40.295Z,97961.25
2022-10-20T05:45:07.458Z,97942.97
2022-10-20T05:47:33.935Z,97950.00
2022-10-20T05:50:00.308Z,97932.72
2022-10-20T05:52:26.689Z,97917.25
2022-10-20T05:54:53.117Z,97902.66
2022-10-20T05:57:19.519Z,97877.97
2022-10-20T05:59:45.894Z,97855.50
2022-10-20T06:02:12.465Z,97842.06
2022-10-20T06:04:38.863Z,97842.72
2022-10-20T06:07:05.843Z,97830.50
2022-10-20T06:09:32.307Z,97830.50
2022-10-20T06:11:58.948Z,97828.47
2022-10-20T06:14:25.910Z,97837.22
2022-10-20T06:16:52.979Z,97830.06
2022-10-20T06:19:19.477Z,97819.38
2022-10-20T06:21:45.908Z,97819.38
2022-10-20T06:24:12.451Z,97819.06
2022-10-20T06:26:38.911Z,97815.34
2022-10-20T06:29:10.641Z,97821.25
2022-10-20T06:31:44.856Z,97811.41
2022-10-20T06:34:14.598Z,97808.16
2022-10-20T06:36:41.949Z,97785.22
2022-10-20T06:39:10.602Z,97770.19
2022-10-20T06:41:37.150Z,97758.56
2022-10-20T06:44:03.574Z,97759.31
2022-10-20T06:46:31.288Z,97757.38
2022-10-20T06:48:59.992Z,97744.94
2022-10-20T06:51:26.397Z,97745.50
2022-10-20T06:53:52.898Z,97743.38
2022-10-20T06:56:23.785Z,97753.63
2022-10-20T06:58:51.129Z,97755.94
2022-10-20T07:01:19.672Z,97781.97
2022-10-20T07:03:47.007Z,97799.09
2022-10-20T07:06:15.662Z,97805.50
2022-10-20T07:08:42.111Z,97814.22
2022-10-20T07:11:13.678Z,97819.63
2022-10-20T07:13:40.265Z,97815.72
2022-10-20T07:16:07.505Z,97815.47
2022-10-20T07:18:34.137Z,97805.59
2022-10-20T07:21:02.511Z,97807.91
2022-10-20T07:23:29.568Z,97819.84
2022-10-20T07:26:01.901Z,97834.28
2022-10-20T07:28:28.915Z,97842.03
2022-10-20T07:30:55.358Z,97823.56
2022-10-20T07:33:21.739Z,97805.31
2022-10-20T07:35:48.498Z,97816.44
2022-10-20T07:38:14.864Z,97812.03
2022-10-20T07:40:41.347Z,97829.19
2022-10-20T07:43:10.335Z,97814.19
2022-10-20T07:45:36.724Z,97823.41
2022-10-20T07:48:04.198Z,97802.16
2022-10-20T07:50:30.580Z,97803.88
2022-10-20T07:52:56.973Z,97787.19
2022-10-20T07:55:38.054Z,97765.94
2022-10-20T07:58:05.244Z,97743.88
2022-10-20T08:00:31.721Z,97771.44
2022-10-20T08:02:58.182Z,97798.81
2022-10-20T08:05:24.563Z,97821.91
2022-10-20T08:07:50.912Z,97835.41
2022-10-20T08:10:17.392Z,97831.03
2022-10-20T08:12:43.844Z,97815.03
2022-10-20T08:15:10.330Z,97805.13
2022-10-20T08:17:36.720Z,97818.00
2022-10-20T08:20:08.891Z,97822.00
2022-10-20T08:22:35.648Z,97867.66
2022-10-20T08:25:02.220Z,97908.97
2022-10-20T08:27:28.641Z,97927.59
2022-10-20T08:30:00.388Z,97945.41
2022-10-20T08:32:32.775Z,97954.63
2022-10-20T08:34:59.164Z,97964.69
2022-10-20T08:37:25.615Z,97995.84
2022-10-20T08:39:52.037Z,98018.06
2022-10-20T08:42:18.401Z,98047.34
2022-10-20T08:44:45.846Z,98052.19
2022-10-20T08:47:29.254Z,98053.28
2022-10-20T08:49:59.804Z,98056.47
2022-10-20T08:52:26.583Z,98063.41
2022-10-20T08:54:55.341Z,98094.47
2022-10-20T08:57:24.862Z,98106.41
2022-10-20T08:59:55.413Z,98094.91
2022-10-20T09:02:22.086Z,98090.47
2022-10-20T09:04:49.854Z,98101.34
2022-10-20T09:07:34.246Z,98116.38
2022-10-20T09:10:16.158Z,98130.28
2022-10-20T09:12:43.891Z,98135.78
2022-10-20T09:15:11.051Z,98152.78
2022-10-20T09:17:37.711Z,98152.19
2022-10-20T09:20:04.706Z,98134.25
2022-10-20T09:22:35.706Z,98115.53
2022-10-20T09:25:03.081Z,98107.88
2022-10-20T09:27:31.733Z,98093.16
2022-10-20T09:29:58.126Z,98102.09
2022-10-20T09:32:45.905Z,98135.53
2022-10-20T09:35:30.597Z,98155.88
2022-10-20T09:38:05.292Z,98139.31
2022-10-20T09:40:31.923Z,98198.41
2022-10-20T09:43:11.928Z,98205.69
2022-10-20T09:45:39.416Z,98244.38
2022-10-20T09:48:17.796Z,98249.97
2022-10-20T09:50:46.638Z,98266.22
2022-10-20T09:53:20.243Z,98277.25
2022-10-20T09:55:48.255Z,98323.28
2022-10-20T09:58:37.917Z,98340.00
2022-10-20T10:01:13.495Z,98372.63
2022-10-20T10:03:41.327Z,98385.69
2022-10-20T10:06:38.809Z,98398.34
2022-10-20T10:09:28.549Z,98393.31
2022-10-20T10:12:04.724Z,98410.53
2022-10-20T10:14:33.258Z,98429.84
2022-10-20T10:17:00.225Z,98434.88
2022-10-20T10:19:28.675Z,98430.22
2022-10-20T10:21:57.100Z,98429.47
2022-10-20T10:24:39.054Z,98416.91
2022-10-20T10:27:09.188Z,98416.53
2022-10-20T10:29:36.456Z,98447.53
2022-10-20T10:32:23.129Z,98487.16
2022-10-20T10:35:26.005Z,98514.16
2022-10-20T10:37:52.514Z,98512.84
2022-10-20T10:40:20.627Z,98519.94
2022-10-20T10:43:29.548Z,98547.91
2022-10-20T10:46:00.493Z,98552.56
2022-10-20T10:48:45.835Z,98516.78
2022-10-20T10:51:40.010Z,98530.34
2022-10-20T10:54:11.605Z,98557.88
2022-10-20T10:56:49.878Z,98584.16
2022-10-20T10:59:43.268Z,98601.19
2022-10-20T11:02:39.127Z,98600.78
2022-10-20T11:05:35.685Z,98575.38
2022-10-20T11:08:05.486Z,98623.84
2022-10-20T11:10:44.164Z,98614.28
2022-10-20T11:13:26.027Z,98621.03
2022-10-20T11:16:12.331Z,98608.94
2022-10-20T11:18:57.015Z,98565.09
2022-10-20T11:21:23.386Z,98584.97
2022-10-20T11:24:14.425Z,98576.66
2022-10-20T11:26:41.966Z,98600.03
2022-10-20T11:29:19.126Z,98605.94
2022-10-20T11:32:09.744Z,98607.94
2022-10-20T11:34:38.768Z,98620.47
2022-10-20T11:37:20.395Z,98606.75
2022-10-20T11:40:29.461Z,98658.09
2022-10-20T11:43:08.695Z,98744.44
2022-10-20T11:45:38.735Z,98761.22
2022-10-20T11:48:11.012Z,98843.69
2022-10-20T11:50:37.471Z,98868.84
2022-10-20T11:53:03.916Z,98927.03
2022-10-20T11:55:39.363Z,98955.38
2022-10-20T11:58:23.990Z,98927.69
2022-10-20T12:01:04.039Z,98988.25
2022-10-20T12:03:45.643Z,98964.91
2022-10-20T12:06:18.409Z,98941.09
2022-10-20T12:09:10.540Z,98973.16
2022-10-20T12:12:09.602Z,98960.50
2022-10-20T12:14:43.618Z,99018.16
2022-10-20T12:17:15.378Z,98989.88
2022-10-20T12:19:41.791Z,99029.09
2022-10-20T12:22:14.321Z,99102.81
2022-10-20T12:24:53.652Z,99170.47
2022-10-20T12:27:20.813Z,99222.41
2022-10-20T12:29:51.986Z,99236.72
2022-10-20T12:32:21.571Z,99253.69
2022-10-20T12:34:49.191Z,99207.69
2022-10-20T12:37:25.069Z,99271.84
2022-10-20T12:39:52.523Z,99261.06
2022-10-20T12:42:23.571Z,99326.44
2022-10-20T12:44:50.202Z,99280.44
2022-10-20T12:47:26.912Z,99253.69
2022-10-20T12:49:55.697Z,99231.69
2022-10-20T12:52:24.068Z,99270.09
2022-10-20T12:54:55.112Z,99247.31
2022-10-20T12:57:41.483Z,99220.09
2022-10-20T13:00:20.175Z,99218.31
2022-10-20T13:02:53.434Z,99209.56
2022-10-20T13:05:19.815Z,99182.38
2022-10-20T13:07:46.189Z,99168.00
2022-10-20T13:10:30.923Z,99218.56
2022-10-20T13:13:03.345Z,99213.81
2022-10-20T13:15:38.827Z,99199.72
2022-10-20T13:18:11.618Z,99187.44
2022-10-20T13:20:43.431Z,99190.84
2022-10-20T13:23:11.862Z,99152.41
2022-10-20T13:25:55.206Z,99185.53
2022-10-20T13:28:28.527Z,99134.75
2022-10-20T13:30:57.836Z,99166.75
2022-10-20T13:34:02.754Z,99265.31
2022-10-20T13:36:22.896Z,99270.69
2022-10-20T13:39:14.167Z,99256.81
2022-10-20T13:42:05.013Z,99184.06
2022-10-20T13:45:02.280Z,99210.28
2022-10-20T13:47:50.528Z,99245.88
2022-10-20T13:50:27.119Z,99266.31
2022-10-20T13:52:55.405Z,99209.44
2022-10-20T13:55:26.398Z,99201.91
2022-10-20T13:58:22.727Z,99099.81
2022-10-20T14:01:06.683Z,99009.50
2022-10-20T14:03:40.776Z,99039.44
2022-10-20T14:06:26.804Z,99046.44
2022-10-20T14:08:54.114Z,99024.63
2022-10-20T14:11:20.493Z,99009.63
2022-10-20T14:13:46.907Z,98972.28
2022-10-20T14:16:18.298Z,98958.91
2022-10-20T14:18:44.681Z,98976.16
2022-10-20T14:21:16.209Z,98970.16
2022-10-20T14:23:43.504Z,98955.81
2022-10-20T14:26:20.406Z,98887.25
2022-10-20T14:28:47.437Z,98874.47
2022-10-20T14:31:14.147Z,98879.63
2022-10-20T14:33:44.406Z,98875.75
2022-10-20T14:36:20.129Z,98855.50
2022-10-20T14:38:47.852Z,98840.44
2022-10-20T14:41:26.906Z,98765.94
2022-10-20T14:44:03.352Z,98766.38
2022-10-20T14:46:36.010Z,98713.50
2022-10-20T14:49:02.439Z,98702.16
2022-10-20T14:51:44.942Z,98598.91
2022-10-20T14:54:20.706Z,98559.38
2022-10-20T14:56:48.930Z,98519.78
2022-10-20T14:59:16.423Z,98552.19
2022-10-20T15:01:56.297Z,98532.03
2022-10-20T15:04:26.229Z,98504.03
2022-10-20T15:07:05.863Z,98592.03
2022-10-20T15:09:43.791Z,98630.34
2022-10-20T15:12:32.918Z,98685.63
2022-10-20T15:15:09.927Z,98713.28
2022-10-20T15:17:46.589Z,98721.28
2022-10-20T15:20:34.267Z,98683.38
2022-10-20T15:23:05.397Z,98758.97
2022-10-20T15:25:36.108Z,98743.69
2022-10-20T15:28:02.528Z,98793.69
2022-10-20T15:30:35.374Z,98869.66
2022-10-20T15:33:01.738Z,98964.75
2022-10-20T15:35:30.859Z,98938.63
2022-10-20T15:37:57.231Z,98920.31
2022-10-20T15:40:23.616Z,98923.78
2022-10-20T15:42:50.002Z,98946.75
2022-10-20T15:45:18.317Z,98936.41
2022-10-20T15:47:44.738Z,98939.91
2022-10-20T15:50:11.368Z,98892.91
2022-10-20T15:52:38.141Z,98887.72
2022-10-20T15:55:22.483Z,98819.31
2022-10-20T15:57:50.255Z,98833.84
2022-10-20T16:00:16.987Z,98800.78
2022-10-20T16:02:43.471Z,98821.81
2022-10-20T16:05:09.880Z,98815.72
2022-10-20T16:07:36.559Z,98790.25
2022-10-20T16:10:04.820Z,98767.88
2022-10-20T16:12:31.246Z,98705.38
2022-10-20T16:14:57.619Z,98693.19
2022-10-20T16:17:24.006Z,98707.09
2022-10-20T16:19:50.390Z,98693.19
2022-10-20T16:22:16.791Z,98683.63
2022-10-20T16:24:43.266Z,98675.53
2022-10-20T16:27:09.741Z,98653.97
2022-10-20T16:29:36.159Z,98644.16
2022-10-20T16:32:02.805Z,98607.78
2022-10-20T16:34:29.325Z,98633.03
2022-10-20T16:36:55.710Z,98604.19
2022-10-20T16:39:22.119Z,98592.00
2022-10-20T16:41:48.500Z,98623.13
2022-10-20T16:44:14.894Z,98633.44
2022-10-20T16:46:41.551Z,98621.13
2022-10-20T16:49:07.953Z,98595.06
2022-10-20T16:51:34.322Z,98572.66
2022-10-20T16:54:03.341Z,98612.72
2022-10-20T16:56:30.158Z,98580.44
2022-10-20T16:58:56.595Z,98607.34
2022-10-20T17:01:23.293Z,98629.03
2022-10-20T17:03:51.246Z,98605.44
2022-10-20T17:06:19.493Z,98611.56
2022-10-20T17:08:45.922Z,98632.31
2022-10-20T17:11:14.233Z,98591.38
2022-10-20T17:13:40.762Z,98554.56
2022-10-20T17:16:22.536Z,98457.47
2022-10-20T17:18:53.013Z,98378.94
2022-10-20T17:21:19.514Z,98385.13
2022-10-20T17:23:46.327Z,98418.25
2022-10-20T17:26:22.922Z,98405.94
2022-10-20T17:28:49.312Z,98337.69
2022-10-20T17:33:47.688Z,98294.00
2022-10-20T17:36:14.267Z,98312.25
2022-10-20T17:38:41.321Z,98242.03
2022-10-20T17:41:09.271Z,98214.50
2022-10-20T17:43:35.770Z,98188.38
2022-10-20T17:46:08.027Z,98104.38
2022-10-20T17:48:37.632Z,98035.41
2022-10-20T17:51:21.396Z,97941.75
2022-10-20T17:53:49.665Z,97838.22
2022-10-20T17:56:17.396Z,97709.53
2022-10-20T17:58:44.858Z,97598.75
2022-10-20T18:01:11.987Z,97534.19
2022-10-20T18:03:38.781Z,97398.75
2022-10-20T18:06:08.592Z,97262.16
2022-10-20T18:08:35.030Z,97196.94
2022-10-20T18:11:01.437Z,97124.53
2022-10-20T18:13:27.826Z,97031.28
2022-10-20T18:15:54.229Z,96941.34
2022-10-20T18:18:20.622Z,96858.19
2022-10-20T18:20:56.774Z,96764.84
2022-10-20T18:23:23.241Z,96659.59
2022-10-20T18:25:49.661Z,96614.31
2022-10-20T18:30:47.975Z,96472.41
2022-10-20T18:33:14.416Z,96407.28
2022-10-20T18:35:40.828Z,96342.97
2022-10-20T18:38:07.228Z,96281.00
2022-10-20T18:40:33.694Z,96202.72
2022-10-20T18:43:03.036Z,96202.56
2022-10-20T18:45:29.424Z,96128.31
2022-10-20T18:47:55.796Z,96083.56
2022-10-20T18:50:22.197Z,96016.69
2022-10-20T18:52:48.556Z,95991.13
2022-10-20T18:55:15.042Z,96006.66
2022-10-20T18:57:41.426Z,96171.34
2022-10-20T19:00:08.557Z,96189.41
2022-10-20T19:02:35.500Z,96151.34
2022-10-20T19:05:03.099Z,96111.88
2022-10-20T19:07:32.329Z,96073.63
2022-10-20T19:09:58.948Z,95957.16
2022-10-20T19:12:25.327Z,95787.41
2022-10-20T19:14:52.110Z,95555.94
2022-10-20T19:17:18.560Z,95529.06
2022-10-20T19:19:46.433Z,95533.66
2022-10-20T19:22:12.849Z,95517.94
2022-10-20T19:24:40.551Z,95501.22
2022-10-20T19:27:25.617Z,95480.56
2022-10-20T19:29:53.316Z,95481.56
2022-10-20T19:32:19.694Z,95467.47
2022-10-20T19:34:46.129Z,95430.44
2022-10-20T19:37:12.530Z,95400.63
2022-10-20T19:39:40.400Z,95373.91
2022-10-20T19:42:07.270Z,95361.97
2022-10-20T19:44:33.694Z,95340.03
2022-10-20T19:47:00.202Z,95296.50
2022-10-20T19:49:26.911Z,95262.53
2022-10-20T19:51:53.375Z,95255.50
2022-10-20T19:54:19.814Z,95234.53
2022-10-20T19:56:46.260Z,95224.38
2022-10-20T19:59:12.683Z,95203.13
2022-10-20T20:01:39.161Z,95188.03
2022-10-20T20:04:06.311Z,95189.66
2022-10-20T20:06:33.000Z,95177.22
2022-10-20T20:09:00.841Z,95183.06
2022-10-20T20:11:29.566Z,95196.19
2022-10-20T20:14:17.537Z,95186.88
2022-10-20T20:16:45.840Z,95182.78
2022-10-20T20:19:13.222Z,95170.06
2022-10-20T20:21:39.586Z,95162.22
2022-10-20T20:24:06.287Z,95145.03
2022-10-20T20:26:35.603Z,95132.75
2022-10-20T20:29:02.073Z,95122.06
2022-10-20T20:31:28.651Z,95096.41
2022-10-20T20:33:56.555Z,95079.78
2022-10-20T20:36:22.993Z,95060.00
2022-10-20T20:38:51.556Z,95018.09
2022-10-20T20:41:20.878Z,94990.81
2022-10-20T20:43:47.371Z,94963.44
2022-10-20T20:46:15.533Z,94951.16
2022-10-20T20:48:42.007Z,94907.63
2022-10-20T20:51:08.670Z,94878.16
2022-10-20T20:53:35.726Z,94885.59
2022-10-20T20:56:03.938Z,94842.25
2022-10-20T20:58:30.488Z,94826.09
2022-10-20T21:01:13.465Z,94810.56
2022-10-20T21:03:40.057Z,94789.78
2022-10-20T21:06:16.924Z,94774.91
2022-10-20T21:08:46.287Z,94757.53
2022-10-20T21:11:16.928Z,94743.47
2022-10-20T21:13:43.584Z,94717.28
2022-10-20T21:16:11.425Z,94701.56
2022-10-20T21:18:38.720Z,94698.69
2022-10-20T21:23:42.975Z,94666.66
2022-10-20T21:26:09.955Z,94660.41
2022-10-20T21:28:36.551Z,94665.63
2022-10-20T21:31:10.196Z,94664.63
2022-10-20T21:33:36.965Z,94667.25
2022-10-20T21:36:07.932Z,94682.00
2022-10-20T21:38:34.744Z,94702.25
2022-10-20T21:41:05.457Z,94706.75
2022-10-20T21:43:32.156Z,94696.06
2022-10-20T21:46:14.874Z,94690.59
2022-10-20T21:48:41.651Z,94683.72
2022-10-20T21:51:35.040Z,94662.78
2022-10-20T21:54:12.314Z,94669.03
2022-10-20T21:56:40.986Z,94664.78
2022-10-20T21:59:08.475Z,94669.38
2022-10-20T22:01:34.848Z,94654.69
2022-10-20T22:04:01.305Z,94650.22
2022-10-20T22:06:27.707Z,94652.19
2022-10-20T22:08:56.126Z,94650.94
2022-10-20T22:11:27.450Z,94640.47
2022-10-20T22:13:53.989Z,94633.03
2022-10-20T22:16:21.960Z,94606.59
2022-10-20T22:18:48.436Z,94608.78
2022-10-20T22:21:17.092Z,94606.72
2022-10-20T22:23:43.874Z,94595.25
2022-10-20T22:26:10.764Z,94625.47
2022-10-20T22:28:37.488Z,94497.44
2022-10-20T22:31:05.972Z,94490.59
2022-10-20T22:33:32.562Z,94478.56
2022-10-20T22:35:58.940Z,94487.41
2022-10-20T22:38:25.328Z,94489.66
2022-10-20T22:40:51.703Z,94512.84
2022-10-20T22:43:18.080Z,94523.31
2022-10-20T22:45:44.447Z,94517.91
2022-10-20T22:48:10.816Z,94518.09
2022-10-20T22:50:37.196Z,94512.84
2022-10-20T22:53:03.629Z,94514.84
2022-10-20T22:55:30.032Z,94515.25
2022-10-20T22:57:56.426Z,94522.84
2022-10-20T23:00:22.808Z,94542.56
2022-10-20T23:02:49.190Z,94549.78
2022-10-20T23:05:15.710Z,94554.59
2022-10-20T23:07:42.076Z,94556.13
2022-10-20T23:10:08.688Z,94561.78
2022-10-20T23:12:35.438Z,94572.59
2022-10-20T23:15:02.106Z,94580.22
2022-10-20T23:17:28.546Z,94593.84
2022-10-20T23:19:55.067Z,94622.75
2022-10-20T23:22:21.436Z,94633.59
2022-10-20T23:24:47.963Z,94646.00
2022-10-20T23:27:14.400Z,94644.03
2022-10-20T23:29:40.788Z,94658.66
2022-10-20T23:32:07.199Z,94668.50
2022-10-20T23:37:00.929Z,94686.88
2022-10-20T23:39:27.290Z,94715.75
2022-10-20T23:41:53.691Z,94729.81
2022-10-20T23:44:20.052Z,94735.41
2022-10-20T23:46:46.435Z,94727.56
2022-10-20T23:49:12.893Z,94718.09
2022-10-20T23:51:39.281Z,94733.59
2022-10-20T23:54:05.720Z,94719.84
2022-10-20T23:56:32.121Z,94705.75
2022-10-20T23:58:58.510Z,94701.53
